createdAt,value
2022-11-18T00:01:29.629Z,2.20
2022-11-18T00:03:57.309Z,2.08
2022-11-18T00:06:25.896Z,3.58
2022-11-18T00:08:53.973Z,1.58
2022-11-18T00:11:48.618Z,4.15
2022-11-18T00:14:20.929Z,3.35
2022-11-18T00:16:59.567Z,1.13
2022-11-18T00:19:28.779Z,2.88
2022-11-18T00:21:56.665Z,2.38
2022-11-18T00:24:24.653Z,3.60
2022-11-18T00:26:52.547Z,2.08
2022-11-18T00:29:20.831Z,2.35
2022-11-18T00:31:49.101Z,2.13
2022-11-18T00:34:18.809Z,1.27
2022-11-18T00:36:47.247Z,1.90
2022-11-18T00:39:16.407Z,4.75
2022-11-18T00:42:03.309Z,2.90
2022-11-18T00:44:31.228Z,2.05
2022-11-18T00:46:58.509Z,0.90
2022-11-18T00:49:26.387Z,4.63
2022-11-18T00:51:54.086Z,0.70
2022-11-18T00:54:21.896Z,1.08
2022-11-18T00:56:49.386Z,2.42
2022-11-18T00:59:17.810Z,1.80
2022-11-18T01:01:45.578Z,3.60
2022-11-18T01:04:13.244Z,2.35
2022-11-18T01:06:40.943Z,1.65
2022-11-18T01:09:08.448Z,2.55
2022-11-18T01:11:54.527Z,2.70
2022-11-18T01:14:22.067Z,0.70
2022-11-18T01:16:52.338Z,0.75
2022-11-18T01:19:20.370Z,1.17
2022-11-18T01:21:48.208Z,1.95
2022-11-18T01:24:15.716Z,1.65
2022-11-18T01:26:43.445Z,1.30
2022-11-18T01:29:11.026Z,0.95
2022-11-18T01:31:50.113Z,1.13
2022-11-18T01:34:28.549Z,2.10
2022-11-18T01:36:58.659Z,4.43
2022-11-18T01:39:26.486Z,1.73
2022-11-18T01:41:54.067Z,1.13
2022-11-18T01:44:40.177Z,1.40
2022-11-18T01:47:07.594Z,1.00
2022-11-18T01:49:35.396Z,0.75
2022-11-18T01:52:03.205Z,3.33
2022-11-18T01:54:33.829Z,3.40
2022-11-18T01:57:02.814Z,0.82
2022-11-18T01:59:35.910Z,1.92
2022-11-18T02:02:06.814Z,1.58
2022-11-18T02:04:34.957Z,1.42
2022-11-18T02:07:02.678Z,1.42
2022-11-18T02:09:30.865Z,0.68
2022-11-18T02:11:58.725Z,1.20
2022-11-18T02:14:28.787Z,1.17
2022-11-18T02:17:14.909Z,1.85
2022-11-18T02:19:52.197Z,3.65
2022-11-18T02:22:22.916Z,2.13
2022-11-18T02:25:09.427Z,3.55
2022-11-18T02:27:40.026Z,1.17
2022-11-18T02:30:09.526Z,7.03
2022-11-18T02:32:39.984Z,2.15
2022-11-18T02:35:10.526Z,1.85
2022-11-18T02:37:44.560Z,4.43
2022-11-18T02:40:17.351Z,1.60
2022-11-18T02:42:46.440Z,2.22
2022-11-18T02:45:16.518Z,1.00
2022-11-18T02:47:46.416Z,2.33
2022-11-18T02:50:16.480Z,1.30
2022-11-18T02:52:44.396Z,0.73
2022-11-18T02:55:13.459Z,1.13
2022-11-18T02:57:41.971Z,1.77
2022-11-18T03:00:09.663Z,2.40
2022-11-18T03:02:44.886Z,1.20
2022-11-18T03:05:21.441Z,0.90
2022-11-18T03:07:52.793Z,1.02
2022-11-18T03:10:22.525Z,1.55
2022-11-18T03:13:10.889Z,1.00
2022-11-18T03:15:49.457Z,1.02
2022-11-18T03:18:17.056Z,3.10
2022-11-18T03:20:59.926Z,2.05
2022-11-18T03:23:42.776Z,1.45
2022-11-18T03:26:14.529Z,1.40
2022-11-18T03:28:42.080Z,1.88
2022-11-18T03:31:13.150Z,0.93
2022-11-18T03:33:43.788Z,1.60
2022-11-18T03:36:13.479Z,0.98
2022-11-18T03:38:43.787Z,0.77
2022-11-18T03:41:13.374Z,1.25
2022-11-18T03:43:44.400Z,1.02
2022-11-18T03:46:23.559Z,2.20
2022-11-18T03:48:55.392Z,0.93
2022-11-18T03:51:49.115Z,1.02
2022-11-18T03:54:22.956Z,2.38
2022-11-18T03:57:01.519Z,1.58
2022-11-18T03:59:41.177Z,1.85
2022-11-18T04:02:17.077Z,3.65
2022-11-18T04:04:50.431Z,1.42
2022-11-18T04:07:24.071Z,1.70
2022-11-18T04:10:00.127Z,1.85
2022-11-18T04:12:28.915Z,1.23
2022-11-18T04:14:56.350Z,0.90
2022-11-18T04:17:27.718Z,0.70
2022-11-18T04:19:55.786Z,1.20
2022-11-18T04:22:23.219Z,3.65
2022-11-18T04:24:50.676Z,2.55
2022-11-18T04:27:18.484Z,2.38
2022-11-18T04:29:46.013Z,1.23
2022-11-18T04:32:14.259Z,1.98
2022-11-18T04:34:41.650Z,1.50
2022-11-18T04:37:09.197Z,1.23
2022-11-18T04:39:36.699Z,3.78
2022-11-18T04:42:04.204Z,2.83
2022-11-18T04:44:35.009Z,2.45
2022-11-18T04:47:04.062Z,1.95
2022-11-18T04:49:31.706Z,1.58
2022-11-18T04:51:59.520Z,1.35
2022-11-18T04:54:27.526Z,1.40
2022-11-18T04:56:55.619Z,1.20
2022-11-18T04:59:24.407Z,1.00
2022-11-18T05:01:52.025Z,2.83
2022-11-18T05:04:21.087Z,1.95
2022-11-18T05:06:48.736Z,3.28
2022-11-18T05:09:17.486Z,2.70
2022-11-18T05:12:03.991Z,1.38
2022-11-18T05:14:31.729Z,1.85
2022-11-18T05:17:01.956Z,3.95
2022-11-18T05:19:29.639Z,2.15
2022-11-18T05:21:57.156Z,3.70
2022-11-18T05:24:24.776Z,2.33
2022-11-18T05:26:52.969Z,2.22
2022-11-18T05:29:21.092Z,1.88
2022-11-18T05:31:50.227Z,3.70
2022-11-18T05:34:18.516Z,3.53
2022-11-18T05:36:46.040Z,3.08
2022-11-18T05:39:13.547Z,1.58
2022-11-18T05:41:59.781Z,1.55
2022-11-18T05:44:27.766Z,2.90
2022-11-18T05:46:55.576Z,2.35
2022-11-18T05:49:24.479Z,0.52
2022-11-18T05:51:52.124Z,1.95
2022-11-18T05:54:20.310Z,1.95
2022-11-18T05:56:47.989Z,0.70
2022-11-18T05:59:16.366Z,2.75
2022-11-18T06:01:44.546Z,0.77
2022-11-18T06:04:17.406Z,3.33
2022-11-18T06:06:46.587Z,4.40
2022-11-18T06:09:15.276Z,2.08
2022-11-18T06:11:45.191Z,3.53
2022-11-18T06:14:20.523Z,2.20
2022-11-18T06:16:51.062Z,5.40
2022-11-18T06:19:19.308Z,4.80
2022-11-18T06:21:47.523Z,3.65
2022-11-18T06:24:15.357Z,3.63
2022-11-18T06:26:43.473Z,10.80
2022-11-18T06:29:13.344Z,4.40
2022-11-18T06:31:42.163Z,2.55
2022-11-18T06:34:09.918Z,2.03
2022-11-18T06:36:38.542Z,1.40
2022-11-18T06:39:06.670Z,1.17
2022-11-18T06:41:34.730Z,0.70
2022-11-18T06:44:02.536Z,2.83
2022-11-18T06:46:48.424Z,1.63
2022-11-18T06:49:16.138Z,0.85
2022-11-18T06:51:44.146Z,2.83
2022-11-18T06:54:12.055Z,0.57
2022-11-18T06:56:39.606Z,0.93
2022-11-18T06:59:07.105Z,0.98
2022-11-18T07:01:38.554Z,3.38
2022-11-18T07:04:06.460Z,2.42
2022-11-18T07:06:35.517Z,1.13
2022-11-18T07:09:04.139Z,2.05
2022-11-18T07:11:31.829Z,3.10
2022-11-18T07:13:59.333Z,1.17
2022-11-18T07:16:27.962Z,2.53
2022-11-18T07:18:56.556Z,6.15
2022-11-18T07:21:26.998Z,2.70
2022-11-18T07:23:54.943Z,5.75
2022-11-18T07:26:22.568Z,7.00
2022-11-18T07:28:50.235Z,7.55
2022-11-18T07:31:19.377Z,11.23
2022-11-18T07:33:47.483Z,4.53
2022-11-18T07:36:16.055Z,5.55
2022-11-18T07:38:44.188Z,3.53
2022-11-18T07:41:12.942Z,5.75
2022-11-18T07:43:40.423Z,3.58
2022-11-18T07:46:18.696Z,2.08
2022-11-18T07:48:47.412Z,2.25
2022-11-18T07:51:16.317Z,2.28
2022-11-18T07:53:44.093Z,0.95
2022-11-18T07:56:12.199Z,1.52
2022-11-18T07:58:40.122Z,1.33
2022-11-18T08:01:12.277Z,1.65
2022-11-18T08:03:39.812Z,1.58
2022-11-18T08:06:08.738Z,2.33
2022-11-18T08:08:36.902Z,11.02
2022-11-18T08:11:06.428Z,2.97
2022-11-18T08:13:34.487Z,4.35
2022-11-18T08:16:02.048Z,56.55
2022-11-18T08:18:30.691Z,79.55
2022-11-18T08:21:03.088Z,15.88
2022-11-18T08:23:34.006Z,7.25
2022-11-18T08:26:11.066Z,3.03
2022-11-18T08:28:38.827Z,4.22
2022-11-18T08:31:13.322Z,4.22
2022-11-18T08:33:41.504Z,3.83
2022-11-18T08:36:29.387Z,1.80
2022-11-18T08:38:57.888Z,4.13
2022-11-18T08:41:36.447Z,3.97
2022-11-18T08:44:05.062Z,1.85
2022-11-18T08:46:32.669Z,1.15
2022-11-18T08:49:00.792Z,1.67
2022-11-18T08:51:28.966Z,1.27
2022-11-18T08:53:56.902Z,1.50
2022-11-18T08:56:25.471Z,1.55
2022-11-18T08:58:53.301Z,5.05
2022-11-18T09:01:21.276Z,5.50
2022-11-18T09:03:49.160Z,0.95
2022-11-18T09:06:19.008Z,1.42
2022-11-18T09:08:46.894Z,2.40
2022-11-18T09:11:19.120Z,1.05
2022-11-18T09:14:25.926Z,0.50
2022-11-18T09:16:35.211Z,1.13
2022-11-18T09:19:18.568Z,0.85
2022-11-18T09:21:50.869Z,1.52
2022-11-18T09:24:18.845Z,1.27
2022-11-18T09:26:46.877Z,0.90
2022-11-18T09:29:14.690Z,0.98
2022-11-18T09:31:42.114Z,0.63
2022-11-18T09:34:10.777Z,1.15
2022-11-18T09:36:38.636Z,1.00
2022-11-18T09:39:06.050Z,1.35
2022-11-18T09:41:46.383Z,0.98
2022-11-18T09:44:20.287Z,0.40
2022-11-18T09:46:47.665Z,1.02
2022-11-18T09:49:24.676Z,0.80
2022-11-18T09:51:52.911Z,1.02
2022-11-18T09:54:24.687Z,1.20
2022-11-18T09:56:53.424Z,1.15
2022-11-18T09:59:22.610Z,5.60
2022-11-18T10:01:50.811Z,0.30
2022-11-18T10:04:19.815Z,0.65
2022-11-18T10:06:48.361Z,1.85
2022-11-18T10:09:21.956Z,0.70
2022-11-18T10:11:52.757Z,0.50
2022-11-18T10:14:27.310Z,0.65
2022-11-18T10:16:57.968Z,4.35
2022-11-18T10:19:32.189Z,1.38
2022-11-18T10:22:11.765Z,2.25
2022-11-18T10:24:45.887Z,2.58
2022-11-18T10:27:14.433Z,0.85
2022-11-18T10:29:42.245Z,2.33
2022-11-18T10:32:13.083Z,0.60
2022-11-18T10:34:50.082Z,2.40
2022-11-18T10:37:34.688Z,3.50
2022-11-18T10:40:24.767Z,3.40
2022-11-18T10:42:53.774Z,2.67
2022-11-18T10:45:25.270Z,1.58
2022-11-18T10:48:18.510Z,1.40
2022-11-18T10:50:53.479Z,1.50
2022-11-18T10:53:33.122Z,8.40
2022-11-18T10:56:05.355Z,4.57
2022-11-18T10:58:35.623Z,3.35
2022-11-18T11:01:14.915Z,6.50
2022-11-18T11:03:44.272Z,3.45
2022-11-18T11:06:32.188Z,5.40
2022-11-18T11:09:26.101Z,2.25
2022-11-18T11:12:14.546Z,3.88
2022-11-18T11:14:53.597Z,3.63
2022-11-18T11:17:23.867Z,5.43
2022-11-18T11:19:53.367Z,6.13
2022-11-18T11:22:21.032Z,4.10
2022-11-18T11:24:48.934Z,4.05
2022-11-18T11:30:22.425Z,5.00
2022-11-18T11:33:04.520Z,3.63
2022-11-18T11:35:47.591Z,8.32
2022-11-18T11:38:25.332Z,6.00
2022-11-18T11:41:03.550Z,3.13
2022-11-18T11:43:49.328Z,11.93
2022-11-18T11:46:28.953Z,8.48
2022-11-18T11:49:05.459Z,8.00
2022-11-18T11:51:53.376Z,5.78
2022-11-18T11:54:24.107Z,3.38
2022-11-18T11:57:16.324Z,4.28
2022-11-18T11:59:52.791Z,3.10
2022-11-18T12:02:20.326Z,1.50
2022-11-18T12:04:52.557Z,2.28
2022-11-18T12:07:22.373Z,2.30
2022-11-18T12:10:02.678Z,0.88
2022-11-18T12:12:35.306Z,1.02
2022-11-18T12:15:29.083Z,5.82
2022-11-18T12:18:15.473Z,7.78
2022-11-18T12:20:45.238Z,10.05
2022-11-18T12:23:18.827Z,4.47
2022-11-18T12:25:49.178Z,2.40
2022-11-18T12:28:35.680Z,1.13
2022-11-18T12:31:21.619Z,1.17
2022-11-18T12:33:52.380Z,1.50
2022-11-18T12:36:29.175Z,1.30
2022-11-18T12:38:57.178Z,1.45
2022-11-18T12:41:58.579Z,2.08
2022-11-18T12:44:27.303Z,1.58
2022-11-18T12:46:55.773Z,1.30
2022-11-18T12:49:23.334Z,3.35
2022-11-18T12:51:51.718Z,2.42
2022-11-18T12:54:36.440Z,1.65
2022-11-18T12:57:05.843Z,1.00
2022-11-18T12:59:35.558Z,7.20
2022-11-18T13:02:07.653Z,3.05
2022-11-18T13:04:37.843Z,0.95
2022-11-18T13:07:31.129Z,1.25
2022-11-18T13:09:59.143Z,0.90
2022-11-18T13:12:28.040Z,1.17
2022-11-18T13:15:14.478Z,1.02
2022-11-18T13:17:52.206Z,2.10
2022-11-18T13:20:19.980Z,1.20
2022-11-18T13:23:13.300Z,1.80
2022-11-18T13:25:43.146Z,3.25
2022-11-18T13:28:18.523Z,1.80
2022-11-18T13:30:55.745Z,0.95
2022-11-18T13:33:24.207Z,0.90
2022-11-18T13:35:51.691Z,1.65
2022-11-18T13:38:28.428Z,2.05
2022-11-18T13:41:07.312Z,1.20
2022-11-18T13:43:35.722Z,0.80
2022-11-18T13:46:05.781Z,1.10
2022-11-18T13:48:34.348Z,1.38
2022-11-18T13:51:02.472Z,1.63
2022-11-18T13:53:38.804Z,3.28
2022-11-18T13:56:08.587Z,1.05
2022-11-18T13:59:02.670Z,2.40
2022-11-18T14:01:27.672Z,2.88
2022-11-18T14:04:00.134Z,2.42
2022-11-18T14:06:32.343Z,4.32
2022-11-18T14:09:07.482Z,1.45
2022-11-18T14:11:39.018Z,4.32
2022-11-18T14:14:06.967Z,1.38
2022-11-18T14:16:39.060Z,1.42
2022-11-18T14:19:06.840Z,1.50
2022-11-18T14:21:41.168Z,2.05
2022-11-18T14:26:37.619Z,1.73
2022-11-18T14:29:21.563Z,2.72
2022-11-18T14:32:25.099Z,1.58
2022-11-18T14:35:00.270Z,1.15
2022-11-18T14:37:28.285Z,1.00
2022-11-18T14:39:56.877Z,1.85
2022-11-18T14:42:25.943Z,1.98
2022-11-18T14:44:53.540Z,1.67
2022-11-18T14:47:28.434Z,2.38
2022-11-18T14:49:55.771Z,4.00
2022-11-18T14:52:23.275Z,3.25
2022-11-18T14:54:54.224Z,3.05
2022-11-18T14:57:21.764Z,1.65
2022-11-18T14:59:49.066Z,6.15
2022-11-18T15:02:17.453Z,3.22
2022-11-18T15:04:45.516Z,1.83
2022-11-18T15:07:22.728Z,1.98
2022-11-18T15:09:52.132Z,2.58
2022-11-18T15:12:19.786Z,1.42
2022-11-18T15:14:47.503Z,3.38
2022-11-18T15:17:15.066Z,1.60
2022-11-18T15:19:42.680Z,2.17
2022-11-18T15:22:10.333Z,11.57
2022-11-18T15:24:39.050Z,24.65
2022-11-18T15:27:06.584Z,4.53
2022-11-18T15:29:34.167Z,3.13
2022-11-18T15:32:05.351Z,3.15
2022-11-18T15:34:33.141Z,4.53
2022-11-18T15:37:00.614Z,4.60
2022-11-18T15:39:28.260Z,3.25
2022-11-18T15:41:55.970Z,5.75
2022-11-18T15:44:23.549Z,3.95
2022-11-18T15:46:50.944Z,3.53
2022-11-18T15:49:18.919Z,4.75
2022-11-18T15:51:46.392Z,4.22
2022-11-18T15:54:13.923Z,4.20
2022-11-18T15:56:41.966Z,5.03
2022-11-18T15:59:18.382Z,5.32
2022-11-18T16:01:47.460Z,3.83
2022-11-18T16:04:16.890Z,3.83
2022-11-18T16:06:46.210Z,7.75
2022-11-18T16:09:14.220Z,4.07
2022-11-18T16:12:00.301Z,3.40
2022-11-18T16:14:28.103Z,4.32
2022-11-18T16:16:56.803Z,4.15
2022-11-18T16:19:25.981Z,4.95
2022-11-18T16:21:55.340Z,4.55
2022-11-18T16:24:24.588Z,5.97
2022-11-18T16:26:52.103Z,5.68
2022-11-18T16:29:24.399Z,6.95
2022-11-18T16:31:53.182Z,4.85
2022-11-18T16:34:20.950Z,6.03
2022-11-18T16:36:49.920Z,6.40
2022-11-18T16:39:18.743Z,5.32
2022-11-18T16:41:47.223Z,4.95
2022-11-18T16:44:15.987Z,4.93
2022-11-18T16:46:46.500Z,5.38
2022-11-18T16:49:16.775Z,4.28
2022-11-18T16:51:45.253Z,8.00
2022-11-18T16:54:32.066Z,4.43
2022-11-18T16:57:00.056Z,5.22
2022-11-18T16:59:31.160Z,8.70
2022-11-18T17:01:59.577Z,8.13
2022-11-18T17:04:27.921Z,4.55
2022-11-18T17:06:56.113Z,8.48
2022-11-18T17:09:24.651Z,19.83
2022-11-18T17:11:54.282Z,15.45
2022-11-18T17:14:22.311Z,8.60
2022-11-18T17:16:49.901Z,18.40
2022-11-18T17:19:18.572Z,8.75
2022-11-18T17:21:47.036Z,7.32
2022-11-18T17:24:15.273Z,11.52
2022-11-18T17:26:43.080Z,6.07
2022-11-18T17:29:11.671Z,7.00
2022-11-18T17:31:39.716Z,5.70
2022-11-18T17:34:07.512Z,5.70
2022-11-18T17:36:35.200Z,5.30
2022-11-18T17:39:02.748Z,4.32
2022-11-18T17:41:49.217Z,3.55
2022-11-18T17:44:17.749Z,8.43
2022-11-18T17:46:47.549Z,5.35
2022-11-18T17:49:16.313Z,6.35
2022-11-18T17:51:43.922Z,4.07
2022-11-18T17:54:11.822Z,6.65
2022-11-18T17:56:42.770Z,8.80
2022-11-18T17:59:10.379Z,5.07
2022-11-18T18:01:38.016Z,5.10
2022-11-18T18:04:05.902Z,7.60
2022-11-18T18:06:33.653Z,6.43
2022-11-18T18:09:01.042Z,4.40
2022-11-18T18:11:29.081Z,4.38
2022-11-18T18:14:15.169Z,5.38
2022-11-18T18:16:48.962Z,4.55
2022-11-18T18:19:17.859Z,9.15
2022-11-18T18:21:46.040Z,6.15
2022-11-18T18:24:15.627Z,4.65
2022-11-18T18:26:43.580Z,7.18
2022-11-18T18:29:12.312Z,6.00
2022-11-18T18:31:39.842Z,4.35
2022-11-18T18:34:07.472Z,5.65
2022-11-18T18:36:35.279Z,11.10
2022-11-18T18:39:02.996Z,6.68
2022-11-18T18:41:31.243Z,4.35
2022-11-18T18:43:58.718Z,10.00
2022-11-18T18:46:30.980Z,5.85
2022-11-18T18:49:00.435Z,4.07
2022-11-18T18:51:28.879Z,6.18
2022-11-18T18:53:57.938Z,4.55
2022-11-18T18:56:26.393Z,12.57
2022-11-18T18:58:54.137Z,22.77
2022-11-18T19:01:22.309Z,30.63
2022-11-18T19:03:50.113Z,30.38
2022-11-18T19:06:51.643Z,8.10
2022-11-18T19:09:09.490Z,6.53
2022-11-18T19:11:56.343Z,5.97
2022-11-18T19:14:24.229Z,4.65
2022-11-18T19:16:52.339Z,4.57
2022-11-18T19:19:43.397Z,6.70
2022-11-18T19:22:11.862Z,5.18
2022-11-18T19:24:55.030Z,9.02
2022-11-18T19:27:23.149Z,6.50
2022-11-18T19:29:50.711Z,4.57
2022-11-18T19:32:19.045Z,6.53
2022-11-18T19:34:46.450Z,10.55
2022-11-18T19:37:14.168Z,4.57
2022-11-18T19:39:41.833Z,12.13
2022-11-18T19:42:11.709Z,5.07
2022-11-18T19:44:39.678Z,5.32
2022-11-18T19:47:07.429Z,4.70
2022-11-18T19:49:34.950Z,5.30
2022-11-18T19:52:03.103Z,7.05
2022-11-18T19:54:30.999Z,5.97
2022-11-18T19:56:58.512Z,13.30
2022-11-18T19:59:26.058Z,8.63
2022-11-18T20:01:53.598Z,7.28
2022-11-18T20:04:21.359Z,9.82
2022-11-18T20:06:49.147Z,6.20
2022-11-18T20:09:17.193Z,6.82
2022-11-18T20:11:45.551Z,3.70
2022-11-18T20:14:13.689Z,5.15
2022-11-18T20:16:41.611Z,8.90
2022-11-18T20:19:13.945Z,4.85
2022-11-18T20:21:43.610Z,7.20
2022-11-18T20:24:18.594Z,4.72
2022-11-18T20:26:46.841Z,4.88
2022-11-18T20:29:14.462Z,6.68
2022-11-18T20:31:42.880Z,6.78
2022-11-18T20:34:13.660Z,5.88
2022-11-18T20:36:41.527Z,8.38
2022-11-18T20:39:14.909Z,5.82
2022-11-18T20:41:43.286Z,4.97
2022-11-18T20:44:10.969Z,6.43
2022-11-18T20:46:38.451Z,6.30
2022-11-18T20:49:06.099Z,5.50
2022-11-18T20:51:33.588Z,7.85
2022-11-18T20:54:01.209Z,9.55
2022-11-18T20:56:28.965Z,8.18
2022-11-18T20:58:59.949Z,6.93
2022-11-18T21:01:28.757Z,5.85
2022-11-18T21:03:57.591Z,6.43
2022-11-18T21:06:26.494Z,13.63
2022-11-18T21:08:58.279Z,13.88
2022-11-18T21:11:26.423Z,21.77
2022-11-18T21:14:12.649Z,14.82
2022-11-18T21:16:41.139Z,8.50
2022-11-18T21:19:09.076Z,10.20
2022-11-18T21:21:45.569Z,5.72
2022-11-18T21:24:17.940Z,12.65
2022-11-18T21:26:46.942Z,6.63
2022-11-18T21:29:15.711Z,4.70
2022-11-18T21:31:43.955Z,5.82
2022-11-18T21:34:12.569Z,8.88
2022-11-18T21:36:46.941Z,6.57
2022-11-18T21:39:17.916Z,4.40
2022-11-18T21:41:48.366Z,6.45
2022-11-18T21:44:18.378Z,4.63
2022-11-18T21:46:45.933Z,7.07
2022-11-18T21:49:13.467Z,7.22
2022-11-18T21:51:41.013Z,6.00
2022-11-18T21:54:09.299Z,11.93
2022-11-18T21:56:36.812Z,9.45
2022-11-18T21:59:04.654Z,6.35
2022-11-18T22:01:33.907Z,5.65
2022-11-18T22:04:02.601Z,6.32
2022-11-18T22:06:31.687Z,6.03
2022-11-18T22:08:59.318Z,6.60
2022-11-18T22:11:26.989Z,5.93
2022-11-18T22:13:54.789Z,4.38
2022-11-18T22:16:23.277Z,6.38
2022-11-18T22:18:57.824Z,7.10
2022-11-18T22:21:28.174Z,8.50
2022-11-18T22:24:00.164Z,5.18
2022-11-18T22:26:28.378Z,6.38
2022-11-18T22:28:57.109Z,5.68
2022-11-18T22:31:25.969Z,6.18
2022-11-18T22:33:54.022Z,4.75
2022-11-18T22:36:22.841Z,6.30
2022-11-18T22:38:50.762Z,6.78
2022-11-18T22:41:37.448Z,7.57
2022-11-18T22:44:07.994Z,12.80
2022-11-18T22:46:37.068Z,6.00
2022-11-18T22:49:05.467Z,5.57
2022-11-18T22:51:33.273Z,5.55
2022-11-18T22:54:37.816Z,5.85
2022-11-18T22:56:48.588Z,6.53
2022-11-18T22:59:16.537Z,7.35
2022-11-18T23:01:45.155Z,8.82
2022-11-18T23:04:12.879Z,4.70
2022-11-18T23:06:40.457Z,3.88
2022-11-18T23:09:08.031Z,4.70
2022-11-18T23:11:54.202Z,4.20
2022-11-18T23:14:21.972Z,5.60
2022-11-18T23:16:49.433Z,6.05
2022-11-18T23:19:18.379Z,8.07
2022-11-18T23:21:46.782Z,4.88
2022-11-18T23:24:15.332Z,4.03
2022-11-18T23:26:43.507Z,4.43
2022-11-18T23:29:11.651Z,6.28
2022-11-18T23:31:41.799Z,5.28
2022-11-18T23:34:10.452Z,5.97
2022-11-18T23:36:38.088Z,5.20
2022-11-18T23:39:05.591Z,5.97
2022-11-18T23:41:33.429Z,3.00
2022-11-18T23:44:01.278Z,3.60
2022-11-18T23:46:28.879Z,4.55
2022-11-18T23:48:56.550Z,4.65
2022-11-18T23:51:24.819Z,4.10
2022-11-18T23:53:53.990Z,4.20
2022-11-18T23:56:22.819Z,4.00
2022-11-18T23:58:51.409Z,4.72
